PWSweather.com
Personal Weather Stations
Station Observations
TARRYHILL
Tarrytown, NY 10591

Tarrytown, NY 10591

Lat: 41.05185, Lon: -73.85296

Elevation: 341

Station Type: Davis Vantage Vue

www.tarrytownnyweather.com

High Low Average
Temperature 19.6°F-6.9°F 17.1°F-8.3°F 18.0°F-7.8°F
Dew Point 8.6°F-13.0°F 5.2°F-14.9°F 6.8°F-14.0°F
Winds 4.5 mph SW7.2 mph SW 0.1 mph 0.2 mph 1.4 mph 2.3 mph
Wind Gusts 11.0 mph17.7 mph 1.0 mph1.6 mph 4.5 mph7.2 mph
Humidity 68% 53% 61%
Pressure 30.19 in1022.40 in 30.15 in1021.00 in -
Precipitation 0.00 in0.00 in - -
Hour Temp Dew Point Humidity Winds Wind Gusts Pressure Precip Precip Rate Daily Precip Total
12:00 AM 17.2°F-8.2°C 7.8°F-13.4°C 66% 3.5 mph N5.6 kmh N 8.0 mph12.9 kmh 29.98 in1015.2 mb 0.00 in0.0 mm 0.00 in/hr0.0 mm/hr 0.00 in0.0 mm
12:10 AM 17.1°F-8.3°C 7.7°F-13.5°C 66% 5.8 mph NE9.3 kmh NE 7.0 mph11.3 kmh 29.98 in1015.2 mb 0.00 in0.0 mm 0.00 in/hr0.0 mm/hr 0.00 in0.0 mm
12:20 AM 16.8°F-8.4°C 7.1°F-13.8°C 65% 2.2 mph E3.5 kmh E 5.0 mph8.0 kmh 29.98 in1015.2 mb 0.00 in0.0 mm 0.00 in/hr0.0 mm/hr 0.00 in0.0 mm
12:30 AM 16.7°F-8.5°C 7.0°F-13.9°C 65% 7.3 mph WSW11.7 kmh WSW 13.0 mph20.9 kmh 29.99 in1015.6 mb 0.00 in0.0 mm 0.00 in/hr0.0 mm/hr 0.00 in0.0 mm
12:40 AM 16.5°F-8.6°C 6.4°F-14.2°C 64% 3.9 mph NE6.3 kmh NE 13.0 mph20.9 kmh 29.99 in1015.6 mb 0.00 in0.0 mm 0.00 in/hr0.0 mm/hr 0.00 in0.0 mm
12:50 AM 16.4°F-8.7°C 6.7°F-14.1°C 65% 1.5 mph ENE2.4 kmh ENE 4.0 mph6.4 kmh 29.99 in1015.6 mb 0.00 in0.0 mm 0.00 in/hr0.0 mm/hr 0.00 in0.0 mm
01:00 AM 16.1°F-8.8°C 6.8°F-14.0°C 66% 1.0 mph SSE1.6 kmh SSE 7.0 mph11.3 kmh 29.98 in1015.2 mb 0.00 in0.0 mm 0.00 in/hr0.0 mm/hr 0.00 in0.0 mm
01:10 AM 16.0°F-8.9°C 7.0°F-13.9°C 67% 5.0 mph W8.0 kmh W 22.0 mph35.4 kmh 29.99 in1015.6 mb 0.00 in0.0 mm 0.00 in/hr0.0 mm/hr 0.00 in0.0 mm
01:20 AM 15.9°F-8.9°C 6.9°F-13.9°C 67% 3.7 mph NW6.0 kmh NW 8.0 mph12.9 kmh 29.98 in1015.2 mb 0.00 in0.0 mm 0.00 in/hr0.0 mm/hr 0.00 in0.0 mm
01:30 AM 15.7°F-9.1°C 6.7°F-14.1°C 67% 3.6 mph NE5.8 kmh NE 18.0 mph29.0 kmh 30.00 in1015.9 mb 0.00 in0.0 mm 0.00 in/hr0.0 mm/hr 0.00 in0.0 mm
01:40 AM 15.6°F-9.1°C 6.3°F-14.3°C 66% 3.0 mph SE4.8 kmh SE 12.0 mph19.3 kmh 30.00 in1015.9 mb 0.00 in0.0 mm 0.00 in/hr0.0 mm/hr 0.00 in0.0 mm
01:50 AM 15.6°F-9.1°C 4.9°F-15.1°C 62% 5.9 mph SW9.5 kmh SW 14.0 mph22.5 kmh 30.00 in1015.9 mb 0.00 in0.0 mm 0.00 in/hr0.0 mm/hr 0.00 in0.0 mm
02:00 AM 15.4°F-9.2°C 4.7°F-15.2°C 62% 8.4 mph E13.5 kmh E 12.0 mph19.3 kmh 30.01 in1016.3 mb 0.00 in0.0 mm 0.00 in/hr0.0 mm/hr 0.00 in0.0 mm
02:10 AM 15.2°F-9.3°C 4.1°F-15.5°C 61% 4.3 mph N6.9 kmh N 8.0 mph12.9 kmh 30.02 in1016.6 mb 0.00 in0.0 mm 0.00 in/hr0.0 mm/hr 0.00 in0.0 mm
02:20 AM 15.0°F-9.4°C 3.6°F-15.8°C 60% 2.0 mph NW3.2 kmh NW 4.0 mph6.4 kmh 30.02 in1016.6 mb 0.00 in0.0 mm 0.00 in/hr0.0 mm/hr 0.00 in0.0 mm
02:30 AM 14.7°F-9.6°C 3.7°F-15.7°C 61% 5.7 mph NNE9.2 kmh NNE 11.0 mph17.7 kmh 30.02 in1016.6 mb 0.00 in0.0 mm 0.00 in/hr0.0 mm/hr 0.00 in0.0 mm
02:40 AM 14.4°F-9.8°C 2.3°F-16.5°C 58% 6.1 mph NNW9.8 kmh NNW 8.0 mph12.9 kmh 30.03 in1016.9 mb 0.00 in0.0 mm 0.00 in/hr0.0 mm/hr 0.00 in0.0 mm
02:50 AM 14.2°F-9.9°C 2.8°F-16.2°C 60% 4.6 mph ENE7.4 kmh ENE 5.0 mph8.0 kmh 30.04 in1017.3 mb 0.00 in0.0 mm 0.00 in/hr0.0 mm/hr 0.00 in0.0 mm
03:00 AM 13.8°F-10.1°C 2.1°F-16.6°C 59% 2.7 mph W4.3 kmh W 9.0 mph14.5 kmh 30.04 in1017.3 mb 0.00 in0.0 mm 0.00 in/hr0.0 mm/hr 0.00 in0.0 mm
03:10 AM 13.5°F-10.3°C 1.4°F-17.0°C 58% 3.4 mph WSW5.5 kmh WSW 9.0 mph14.5 kmh 30.04 in1017.3 mb 0.00 in0.0 mm 0.00 in/hr0.0 mm/hr 0.00 in0.0 mm
03:20 AM 13.4°F-10.3°C 0.9°F-17.3°C 57% 6.2 mph WNW10.0 kmh WNW 11.0 mph17.7 kmh 30.04 in1017.3 mb 0.00 in0.0 mm 0.00 in/hr0.0 mm/hr 0.00 in0.0 mm
03:30 AM 13.1°F-10.5°C 0.7°F-17.4°C 57% 7.4 mph NNW11.9 kmh NNW 15.0 mph24.1 kmh 30.04 in1017.3 mb 0.00 in0.0 mm 0.00 in/hr0.0 mm/hr 0.00 in0.0 mm
03:40 AM 13.0°F-10.6°C 0.2°F-17.7°C 56% 4.6 mph NW7.4 kmh NW 12.0 mph19.3 kmh 30.05 in1017.6 mb 0.00 in0.0 mm 0.00 in/hr0.0 mm/hr 0.00 in0.0 mm
03:50 AM 12.8°F-10.7°C 0.4°F-17.6°C 57% 3.9 mph N6.3 kmh N 6.0 mph9.7 kmh 30.05 in1017.6 mb 0.00 in0.0 mm 0.00 in/hr0.0 mm/hr 0.00 in0.0 mm
04:00 AM 12.6°F-10.8°C 0.2°F-17.7°C 57% 6.0 mph ESE9.7 kmh ESE 13.0 mph20.9 kmh 30.05 in1017.6 mb 0.00 in0.0 mm 0.00 in/hr0.0 mm/hr 0.00 in0.0 mm
04:10 AM 12.3°F-10.9°C -1.2°F-18.4°C 54% 3.9 mph NNW6.3 kmh NNW 4.0 mph6.4 kmh 30.05 in1017.6 mb 0.00 in0.0 mm 0.00 in/hr0.0 mm/hr 0.00 in0.0 mm
04:20 AM 12.1°F-11.1°C -0.2°F-17.9°C 57% 5.6 mph WNW9.0 kmh WNW 11.0 mph17.7 kmh 30.05 in1017.6 mb 0.00 in0.0 mm 0.00 in/hr0.0 mm/hr 0.00 in0.0 mm
04:30 AM 11.9°F-11.2°C -1.2°F-18.4°C 55% 7.6 mph ENE12.2 kmh ENE 15.0 mph24.1 kmh 30.05 in1017.6 mb 0.00 in0.0 mm 0.00 in/hr0.0 mm/hr 0.00 in0.0 mm
04:40 AM 11.7°F-11.3°C -1.4°F-18.6°C 55% 3.2 mph NW5.1 kmh NW 8.0 mph12.9 kmh 30.05 in1017.6 mb 0.00 in0.0 mm 0.00 in/hr0.0 mm/hr 0.00 in0.0 mm
04:50 AM 11.4°F-11.4°C -2.0°F-18.9°C 54% 7.6 mph NW12.2 kmh NW 13.0 mph20.9 kmh 30.05 in1017.6 mb 0.00 in0.0 mm 0.00 in/hr0.0 mm/hr 0.00 in0.0 mm
05:00 AM 11.2°F-11.6°C -2.2°F-19.0°C 54% 6.8 mph ESE10.9 kmh ESE 20.0 mph32.2 kmh 30.06 in1017.9 mb 0.00 in0.0 mm 0.00 in/hr0.0 mm/hr 0.00 in0.0 mm
05:10 AM 11.0°F-11.7°C -2.4°F-19.1°C 54% 11.6 mph W18.7 kmh W 17.0 mph27.4 kmh 30.06 in1017.9 mb 0.00 in0.0 mm 0.00 in/hr0.0 mm/hr 0.00 in0.0 mm
05:20 AM 10.8°F-11.8°C -2.6°F-19.2°C 54% 11.8 mph NNW19.0 kmh NNW 17.0 mph27.4 kmh 30.06 in1017.9 mb 0.00 in0.0 mm 0.00 in/hr0.0 mm/hr 0.00 in0.0 mm
05:30 AM 10.6°F-11.9°C -2.4°F-19.1°C 55% 8.4 mph NE13.5 kmh NE 17.0 mph27.4 kmh 30.06 in1017.9 mb 0.00 in0.0 mm 0.00 in/hr0.0 mm/hr 0.00 in0.0 mm
05:40 AM 10.4°F-12.0°C -3.0°F-19.4°C 54% 7.8 mph NW12.6 kmh NW 11.0 mph17.7 kmh 30.07 in1018.3 mb 0.00 in0.0 mm 0.00 in/hr0.0 mm/hr 0.00 in0.0 mm
05:50 AM 10.3°F-12.1°C -2.7°F-19.3°C 55% 1.9 mph NW3.1 kmh NW 9.0 mph14.5 kmh 30.07 in1018.3 mb 0.00 in0.0 mm 0.00 in/hr0.0 mm/hr 0.00 in0.0 mm
06:00 AM 10.1°F-12.2°C -2.9°F-19.4°C 55% 6.5 mph W10.5 kmh W 14.0 mph22.5 kmh 30.07 in1018.3 mb 0.00 in0.0 mm 0.00 in/hr0.0 mm/hr 0.00 in0.0 mm
06:10 AM 10.0°F-12.2°C -3.0°F-19.4°C 55% 3.3 mph WNW5.3 kmh WNW 7.0 mph11.3 kmh 30.07 in1018.3 mb 0.00 in0.0 mm 0.00 in/hr0.0 mm/hr 0.00 in0.0 mm
06:20 AM 9.9°F-12.3°C -2.7°F-19.3°C 56% 7.1 mph NE11.4 kmh NE 17.0 mph27.4 kmh 30.07 in1018.3 mb 0.00 in0.0 mm 0.00 in/hr0.0 mm/hr 0.00 in0.0 mm
06:30 AM 9.8°F-12.3°C -3.2°F-19.6°C 55% 3.3 mph W5.3 kmh W 9.0 mph14.5 kmh 30.07 in1018.3 mb 0.00 in0.0 mm 0.00 in/hr0.0 mm/hr 0.00 in0.0 mm
06:40 AM 9.8°F-12.3°C -3.2°F-19.6°C 55% 4.9 mph NW7.9 kmh NW 14.0 mph22.5 kmh 30.08 in1018.6 mb 0.00 in0.0 mm 0.00 in/hr0.0 mm/hr 0.00 in0.0 mm
06:50 AM 9.8°F-12.3°C -3.2°F-19.6°C 55% 3.4 mph NNW5.5 kmh NNW 12.0 mph19.3 kmh 30.07 in1018.3 mb 0.00 in0.0 mm 0.00 in/hr0.0 mm/hr 0.00 in0.0 mm
07:00 AM 9.7°F-12.4°C -4.0°F-20.0°C 53% 4.7 mph ENE7.6 kmh ENE 10.0 mph16.1 kmh 30.08 in1018.6 mb 0.00 in0.0 mm 0.00 in/hr0.0 mm/hr 0.00 in0.0 mm
07:10 AM 9.7°F-12.4°C -3.6°F-19.8°C 54% 5.7 mph E9.2 kmh E 13.0 mph20.9 kmh 30.08 in1018.6 mb 0.00 in0.0 mm 0.00 in/hr0.0 mm/hr 0.00 in0.0 mm
07:20 AM 9.7°F-12.4°C -3.6°F-19.8°C 54% 2.9 mph NNW4.7 kmh NNW 11.0 mph17.7 kmh 30.09 in1019.0 mb 0.00 in0.0 mm 0.00 in/hr0.0 mm/hr 0.00 in0.0 mm
07:30 AM 9.6°F-12.4°C -3.7°F-19.8°C 54% 2.3 mph SE3.7 kmh SE 4.0 mph6.4 kmh 30.09 in1019.0 mb 0.00 in0.0 mm 0.00 in/hr0.0 mm/hr 0.00 in0.0 mm
07:40 AM 9.6°F-12.4°C -3.7°F-19.8°C 54% 2.6 mph W4.2 kmh W 5.0 mph8.0 kmh 30.09 in1019.0 mb 0.00 in0.0 mm 0.00 in/hr0.0 mm/hr 0.00 in0.0 mm
07:50 AM 9.6°F-12.4°C -3.3°F-19.6°C 55% 5.4 mph SSW8.7 kmh SSW 8.0 mph12.9 kmh 30.09 in1019.0 mb 0.00 in0.0 mm 0.00 in/hr0.0 mm/hr 0.00 in0.0 mm
08:00 AM 9.6°F-12.4°C -3.3°F-19.6°C 55% 6.1 mph SW9.8 kmh SW 14.0 mph22.5 kmh 30.08 in1018.6 mb 0.00 in0.0 mm 0.00 in/hr0.0 mm/hr 0.00 in0.0 mm
08:10 AM 9.8°F-12.3°C -3.2°F-19.6°C 55% 3.7 mph WSW6.0 kmh WSW 8.0 mph12.9 kmh 30.09 in1019.0 mb 0.00 in0.0 mm 0.00 in/hr0.0 mm/hr 0.00 in0.0 mm
08:20 AM 9.9°F-12.3°C -3.1°F-19.5°C 55% 2.3 mph WNW3.7 kmh WNW 8.0 mph12.9 kmh 30.09 in1019.0 mb 0.00 in0.0 mm 0.00 in/hr0.0 mm/hr 0.00 in0.0 mm
08:30 AM 10.1°F-12.2°C -2.9°F-19.4°C 55% 0.9 mph NE1.4 kmh NE 13.0 mph20.9 kmh 30.09 in1019.0 mb 0.00 in0.0 mm 0.00 in/hr0.0 mm/hr 0.00 in0.0 mm
08:40 AM 10.2°F-12.1°C -3.9°F-19.9°C 52% 8.0 mph NW12.9 kmh NW 16.0 mph25.7 kmh 30.09 in1019.0 mb 0.00 in0.0 mm 0.00 in/hr0.0 mm/hr 0.00 in0.0 mm
08:50 AM 10.5°F-11.9°C -3.3°F-19.6°C 53% 3.8 mph NW6.1 kmh NW 9.0 mph14.5 kmh 30.09 in1019.0 mb 0.00 in0.0 mm 0.00 in/hr0.0 mm/hr 0.00 in0.0 mm
09:00 AM 10.7°F-11.8°C -3.1°F-19.5°C 53% 1.7 mph ESE2.7 kmh ESE 3.0 mph4.8 kmh 30.09 in1019.0 mb 0.00 in0.0 mm 0.00 in/hr0.0 mm/hr 0.00 in0.0 mm
09:10 AM 11.1°F-11.6°C -2.7°F-19.3°C 53% 7.2 mph NNW11.6 kmh NNW 13.0 mph20.9 kmh 30.09 in1019.0 mb 0.00 in0.0 mm 0.00 in/hr0.0 mm/hr 0.00 in0.0 mm
09:20 AM 11.5°F-11.4°C -3.2°F-19.6°C 51% 3.3 mph SE5.3 kmh SE 12.0 mph19.3 kmh 30.10 in1019.3 mb 0.00 in0.0 mm 0.00 in/hr0.0 mm/hr 0.00 in0.0 mm
09:30 AM 12.0°F-11.1°C -2.3°F-19.1°C 52% 2.4 mph WSW3.9 kmh WSW 9.0 mph14.5 kmh 30.10 in1019.3 mb 0.00 in0.0 mm 0.00 in/hr0.0 mm/hr 0.00 in0.0 mm
09:40 AM 12.3°F-10.9°C -2.4°F-19.1°C 51% 3.9 mph E6.3 kmh E 6.0 mph9.7 kmh 30.10 in1019.3 mb 0.00 in0.0 mm 0.00 in/hr0.0 mm/hr 0.00 in0.0 mm
09:50 AM 12.9°F-10.6°C -1.4°F-18.6°C 52% 3.4 mph NNE5.5 kmh NNE 5.0 mph8.0 kmh 30.10 in1019.3 mb 0.00 in0.0 mm 0.00 in/hr0.0 mm/hr 0.00 in0.0 mm
10:00 AM 13.2°F-10.4°C -1.6°F-18.7°C 51% 7.3 mph NE11.7 kmh NE 11.0 mph17.7 kmh 30.10 in1019.3 mb 0.00 in0.0 mm 0.00 in/hr0.0 mm/hr 0.00 in0.0 mm
10:10 AM 13.8°F-10.1°C -1.0°F-18.3°C 51% 4.4 mph NE7.1 kmh NE 9.0 mph14.5 kmh 30.11 in1019.6 mb 0.00 in0.0 mm 0.00 in/hr0.0 mm/hr 0.00 in0.0 mm
10:20 AM 14.3°F-9.8°C -0.6°F-18.1°C 51% 4.4 mph WNW7.1 kmh WNW 11.0 mph17.7 kmh 30.11 in1019.6 mb 0.00 in0.0 mm 0.00 in/hr0.0 mm/hr 0.00 in0.0 mm
10:30 AM 14.6°F-9.7°C -0.7°F-18.2°C 50% 5.7 mph ENE9.2 kmh ENE 13.0 mph20.9 kmh 30.11 in1019.6 mb 0.00 in0.0 mm 0.00 in/hr0.0 mm/hr 0.00 in0.0 mm
10:40 AM 15.2°F-9.3°C 0.7°F-17.4°C 52% 1.3 mph WNW2.1 kmh WNW 5.0 mph8.0 kmh 30.11 in1019.6 mb 0.00 in0.0 mm 0.00 in/hr0.0 mm/hr 0.00 in0.0 mm
10:50 AM 15.6°F-9.1°C 0.2°F-17.7°C 50% 4.8 mph W7.7 kmh W 9.0 mph14.5 kmh 30.12 in1020.0 mb 0.00 in0.0 mm 0.00 in/hr0.0 mm/hr 0.00 in0.0 mm
11:00 AM 16.1°F-8.8°C -0.2°F-17.9°C 48% 7.9 mph NW12.7 kmh NW 12.0 mph19.3 kmh 30.12 in1020.0 mb 0.00 in0.0 mm 0.00 in/hr0.0 mm/hr 0.00 in0.0 mm
11:10 AM 16.4°F-8.7°C 0.1°F-17.7°C 48% 4.8 mph ENE7.7 kmh ENE 18.0 mph29.0 kmh 30.12 in1020.0 mb 0.00 in0.0 mm 0.00 in/hr0.0 mm/hr 0.00 in0.0 mm
11:20 AM 17.2°F-8.2°C 0.8°F-17.3°C 48% 3.1 mph NW5.0 kmh NW 8.0 mph12.9 kmh 30.11 in1019.6 mb 0.00 in0.0 mm 0.00 in/hr0.0 mm/hr 0.00 in0.0 mm
11:30 AM 17.7°F-7.9°C 0.9°F-17.3°C 47% 2.3 mph NNE3.7 kmh NNE 6.0 mph9.7 kmh 30.11 in1019.6 mb 0.00 in0.0 mm 0.00 in/hr0.0 mm/hr 0.00 in0.0 mm
11:40 AM 18.0°F-7.8°C 0.7°F-17.4°C 46% 5.0 mph N8.0 kmh N 9.0 mph14.5 kmh 30.11 in1019.6 mb 0.00 in0.0 mm 0.00 in/hr0.0 mm/hr 0.00 in0.0 mm
11:50 AM 18.5°F-7.5°C 1.2°F-17.1°C 46% 3.1 mph WSW5.0 kmh WSW 14.0 mph22.5 kmh 30.11 in1019.6 mb 0.00 in0.0 mm 0.00 in/hr0.0 mm/hr 0.00 in0.0 mm
12:00 PM 18.9°F-7.3°C 1.5°F-16.9°C 46% 5.5 mph E8.9 kmh E 10.0 mph16.1 kmh 30.11 in1019.6 mb 0.00 in0.0 mm 0.00 in/hr0.0 mm/hr 0.00 in0.0 mm
12:10 PM 19.5°F-6.9°C 1.6°F-16.9°C 45% 1.6 mph N2.6 kmh N 5.0 mph8.0 kmh 30.10 in1019.3 mb 0.00 in0.0 mm 0.00 in/hr0.0 mm/hr 0.00 in0.0 mm
12:20 PM 20.0°F-6.7°C 2.0°F-16.7°C 45% 3.9 mph WNW6.3 kmh WNW 9.0 mph14.5 kmh 30.09 in1019.0 mb 0.00 in0.0 mm 0.00 in/hr0.0 mm/hr 0.00 in0.0 mm
12:30 PM 20.2°F-6.6°C 2.2°F-16.6°C 45% 2.2 mph WNW3.5 kmh WNW 6.0 mph9.7 kmh 30.09 in1019.0 mb 0.00 in0.0 mm 0.00 in/hr0.0 mm/hr 0.00 in0.0 mm
12:50 PM 20.6°F-6.3°C 2.1°F-16.6°C 44% 5.7 mph W9.2 kmh W 14.0 mph22.5 kmh 30.08 in1018.6 mb 0.00 in0.0 mm 0.00 in/hr0.0 mm/hr 0.00 in0.0 mm
01:00 PM 20.7°F-6.3°C 1.7°F-16.8°C 43% 5.1 mph NE8.2 kmh NE 8.0 mph12.9 kmh 30.08 in1018.6 mb 0.00 in0.0 mm 0.00 in/hr0.0 mm/hr 0.00 in0.0 mm
01:10 PM 20.9°F-6.2°C 1.4°F-17.0°C 42% 4.2 mph N6.8 kmh N 9.0 mph14.5 kmh 30.07 in1018.3 mb 0.00 in0.0 mm 0.00 in/hr0.0 mm/hr 0.00 in0.0 mm
01:20 PM 21.1°F-6.1°C 1.6°F-16.9°C 42% 4.3 mph ENE6.9 kmh ENE 10.0 mph16.1 kmh 30.07 in1018.3 mb 0.00 in0.0 mm 0.00 in/hr0.0 mm/hr 0.00 in0.0 mm
01:30 PM 21.6°F-5.8°C 1.5°F-16.9°C 41% 3.4 mph ESE5.5 kmh ESE 8.0 mph12.9 kmh 30.06 in1017.9 mb 0.00 in0.0 mm 0.00 in/hr0.0 mm/hr 0.00 in0.0 mm
01:40 PM 21.7°F-5.7°C 1.6°F-16.9°C 41% 3.2 mph W5.1 kmh W 16.0 mph25.7 kmh 30.06 in1017.9 mb 0.00 in0.0 mm 0.00 in/hr0.0 mm/hr 0.00 in0.0 mm
01:50 PM 22.2°F-5.4°C 2.1°F-16.6°C 41% 3.7 mph E6.0 kmh E 11.0 mph17.7 kmh 30.06 in1017.9 mb 0.00 in0.0 mm 0.00 in/hr0.0 mm/hr 0.00 in0.0 mm
02:00 PM 22.3°F-5.4°C 1.6°F-16.9°C 40% 6.8 mph NNE10.9 kmh NNE 10.0 mph16.1 kmh 30.07 in1018.3 mb 0.00 in0.0 mm 0.00 in/hr0.0 mm/hr 0.00 in0.0 mm
02:10 PM 22.5°F-5.3°C 1.2°F-17.1°C 39% 4.5 mph NNE7.2 kmh NNE 10.0 mph16.1 kmh 30.07 in1018.3 mb 0.00 in0.0 mm 0.00 in/hr0.0 mm/hr 0.00 in0.0 mm
02:20 PM 23.2°F-4.9°C 2.4°F-16.4°C 40% 1.2 mph ENE1.9 kmh ENE 4.0 mph6.4 kmh 30.07 in1018.3 mb 0.00 in0.0 mm 0.00 in/hr0.0 mm/hr 0.00 in0.0 mm
02:30 PM 23.5°F-4.7°C 2.1°F-16.6°C 39% 1.9 mph S3.1 kmh S 6.0 mph9.7 kmh 30.07 in1018.3 mb 0.00 in0.0 mm 0.00 in/hr0.0 mm/hr 0.00 in0.0 mm
02:40 PM 23.8°F-4.6°C 1.8°F-16.8°C 38% 2.4 mph W3.9 kmh W 5.0 mph8.0 kmh 30.06 in1017.9 mb 0.00 in0.0 mm 0.00 in/hr0.0 mm/hr 0.00 in0.0 mm
02:50 PM 23.7°F-4.6°C 1.2°F-17.1°C 37% 4.6 mph E7.4 kmh E 11.0 mph17.7 kmh 30.07 in1018.3 mb 0.00 in0.0 mm 0.00 in/hr0.0 mm/hr 0.00 in0.0 mm
03:00 PM 23.7°F-4.6°C 1.2°F-17.1°C 37% 6.1 mph NE9.8 kmh NE 15.0 mph24.1 kmh 30.07 in1018.3 mb 0.00 in0.0 mm 0.00 in/hr0.0 mm/hr 0.00 in0.0 mm
03:10 PM 23.7°F-4.6°C 0.6°F-17.4°C 36% 5.2 mph WSW8.4 kmh WSW 6.0 mph9.7 kmh 30.07 in1018.3 mb 0.00 in0.0 mm 0.00 in/hr0.0 mm/hr 0.00 in0.0 mm
03:20 PM 23.9°F-4.5°C 1.4°F-17.0°C 37% 4.2 mph E6.8 kmh E 12.0 mph19.3 kmh 30.07 in1018.3 mb 0.00 in0.0 mm 0.00 in/hr0.0 mm/hr 0.00 in0.0 mm
03:30 PM 24.2°F-4.3°C 2.2°F-16.6°C 38% 1.7 mph E2.7 kmh E 4.0 mph6.4 kmh 30.08 in1018.6 mb 0.00 in0.0 mm 0.00 in/hr0.0 mm/hr 0.00 in0.0 mm
03:40 PM 24.3°F-4.3°C 2.3°F-16.5°C 38% 1.8 mph SW2.9 kmh SW 5.0 mph8.0 kmh 30.08 in1018.6 mb 0.00 in0.0 mm 0.00 in/hr0.0 mm/hr 0.00 in0.0 mm
03:50 PM 24.4°F-4.2°C 3.0°F-16.1°C 39% 1.2 mph ESE1.9 kmh ESE 6.0 mph9.7 kmh 30.09 in1019.0 mb 0.00 in0.0 mm 0.00 in/hr0.0 mm/hr 0.00 in0.0 mm
04:00 PM 24.6°F-4.1°C 3.1°F-16.1°C 39% 1.6 mph NNW2.6 kmh NNW 6.0 mph9.7 kmh 30.09 in1019.0 mb 0.00 in0.0 mm 0.00 in/hr0.0 mm/hr 0.00 in0.0 mm
04:10 PM 24.0°F-4.4°C 2.0°F-16.7°C 38% 2.7 mph W4.3 kmh W 4.0 mph6.4 kmh 30.09 in1019.0 mb 0.00 in0.0 mm 0.00 in/hr0.0 mm/hr 0.00 in0.0 mm
04:20 PM 24.1°F-4.4°C 3.2°F-16.0°C 40% 0.9 mph E1.4 kmh E 2.0 mph3.2 kmh 30.10 in1019.3 mb 0.00 in0.0 mm 0.00 in/hr0.0 mm/hr 0.00 in0.0 mm
04:30 PM 24.0°F-4.4°C 4.2°F-15.4°C 42% 2.3 mph NNW3.7 kmh NNW 8.0 mph12.9 kmh 30.09 in1019.0 mb 0.00 in0.0 mm 0.00 in/hr0.0 mm/hr 0.00 in0.0 mm
04:40 PM 23.3°F-4.8°C 4.1°F-15.5°C 43% 7.0 mph SSW11.3 kmh SSW 12.0 mph19.3 kmh 30.10 in1019.3 mb 0.00 in0.0 mm 0.00 in/hr0.0 mm/hr 0.00 in0.0 mm
04:50 PM 22.8°F-5.1°C 5.1°F-14.9°C 46% 4.2 mph NE6.8 kmh NE 8.0 mph12.9 kmh 30.11 in1019.6 mb 0.00 in0.0 mm 0.00 in/hr0.0 mm/hr 0.00 in0.0 mm
05:00 PM 22.1°F-5.5°C 4.9°F-15.1°C 47% 1.8 mph WSW2.9 kmh WSW 17.0 mph27.4 kmh 30.11 in1019.6 mb 0.00 in0.0 mm 0.00 in/hr0.0 mm/hr 0.00 in0.0 mm
05:10 PM 21.6°F-5.8°C 4.9°F-15.1°C 48% 3.5 mph E5.6 kmh E 6.0 mph9.7 kmh 30.11 in1019.6 mb 0.00 in0.0 mm 0.00 in/hr0.0 mm/hr 0.00 in0.0 mm
05:20 PM 21.2°F-6.0°C 4.5°F-15.3°C 48% 3.3 mph SE5.3 kmh SE 8.0 mph12.9 kmh 30.11 in1019.6 mb 0.00 in0.0 mm 0.00 in/hr0.0 mm/hr 0.00 in0.0 mm
05:30 PM 20.9°F-6.2°C 4.7°F-15.2°C 49% 1.2 mph SE1.9 kmh SE 3.0 mph4.8 kmh 30.12 in1020.0 mb 0.00 in0.0 mm 0.00 in/hr0.0 mm/hr 0.00 in0.0 mm
05:40 PM 20.6°F-6.3°C 4.9°F-15.1°C 50% 2.5 mph NW4.0 kmh NW 8.0 mph12.9 kmh 30.12 in1020.0 mb 0.00 in0.0 mm 0.00 in/hr0.0 mm/hr 0.00 in0.0 mm
05:50 PM 20.5°F-6.4°C 4.8°F-15.1°C 50% 1.2 mph SE1.9 kmh SE 3.0 mph4.8 kmh 30.12 in1020.0 mb 0.00 in0.0 mm 0.00 in/hr0.0 mm/hr 0.00 in0.0 mm
06:00 PM 20.3°F-6.5°C 5.1°F-14.9°C 51% 2.6 mph WNW4.2 kmh WNW 8.0 mph12.9 kmh 30.12 in1020.0 mb 0.00 in0.0 mm 0.00 in/hr0.0 mm/hr 0.00 in0.0 mm
06:10 PM 20.2°F-6.6°C 5.4°F-14.8°C 52% 1.7 mph W2.7 kmh W 8.0 mph12.9 kmh 30.13 in1020.3 mb 0.00 in0.0 mm 0.00 in/hr0.0 mm/hr 0.00 in0.0 mm
06:20 PM 20.1°F-6.6°C 5.3°F-14.8°C 52% 0.5 mph W0.8 kmh W 5.0 mph8.0 kmh 30.13 in1020.3 mb 0.00 in0.0 mm 0.00 in/hr0.0 mm/hr 0.00 in0.0 mm
06:30 PM 19.9°F-6.7°C 5.1°F-14.9°C 52% 2.2 mph S3.5 kmh S 11.0 mph17.7 kmh 30.13 in1020.3 mb 0.00 in0.0 mm 0.00 in/hr0.0 mm/hr 0.00 in0.0 mm
06:40 PM 19.8°F-6.8°C 5.4°F-14.8°C 53% 1.2 mph NE1.9 kmh NE 2.0 mph3.2 kmh 30.14 in1020.7 mb 0.00 in0.0 mm 0.00 in/hr0.0 mm/hr 0.00 in0.0 mm
06:50 PM 19.7°F-6.8°C 4.9°F-15.1°C 52% 3.1 mph E5.0 kmh E 7.0 mph11.3 kmh 30.15 in1021.0 mb 0.00 in0.0 mm 0.00 in/hr0.0 mm/hr 0.00 in0.0 mm